Ana Sayfa
METAR-TAF:

METAR-TAF

Havaalanları :

Morganton, Kuzey Carolina, Amerika Birleşik Devletleri

Enlem: 35-49-17N, Boylam: 081-36-39W, yükseklik: 387 m

Güncel hava durumu gözlemi

Rapor saat 11:35 UTC de 21 saat ve 51 dakika önce yapıldı.
Sakin rüzgar
Sıcaklık 21°C
Nem 88%
Basınç 1019 hPa
Görüş mesafesi: 16.1 km
Açık gökyüzü

METAR: KMRN 191135Z AUTO 00000KT 10SM CLR 21/19 A3009 RMK AO2 T02050191

Saat: 05:26 (09:26 UTC)


TAF: eksik

4.000'den fazla havaalanı için hava durumu gözlemleri ve tahminleri (METAR ve TAF raporları).

Kullanılabilir istasyonlar harita üzerinde sarı ve kırmızı noktalarla gösterilir.

İstasyonun adını görmek için fareyi noktanın üzerinde gezdirin.

Sonrasında hava gözlem ve tahminlerini görmek için tıklayın.

Haritayı değiştirmek için: yaklaştırmak için siyah artı işaretli yeşil düğmeye ve uzaklaştırmak için de eksi işaretli düğmeye hızla tıklayın; bitişik haritalar için yeşil okları kullanın.


METAR-TAF: